Terminal Aerodrome Forecast
Issued by NWS

Current Version | Previous Version | Graphics & Text | Print | Product List | Glossary On
Versions: 1 2 3 4 5 6 7 8 9 10 11 12 13 14 15 16 17
159
FTUS41 KPBZ 191732
TAFMGW
TAF
KMGW 191732Z 1918/2018 22006G11KT P6SM BKN035
      TEMPO 1918/1920 BKN015
     FM192000 24008KT P6SM BKN040
     FM200200 22004KT P6SM SCT060
     FM201600 25008G14KT P6SM BKN045=

USA.gov is the U.S. government's official web portal to all federal, state and local government web resources and services.